Time;durP1;ratioP1;P1;durP2;ratioP2;P2;SDS_P1;SDS_P2;PMS_P1;PMS_P2;Temp;Humidity;BMP_temperature;BMP_pressure;BME280_temperature;BME280_humidity;BME280_pressure;Samples;Min_cycle;Max_cycle;Signal;HPM_P1;HPM_P2
2022/09/10 00:03:25;;;;;;;;;;;16.80;99.90;;;;;;8420476;28;19942;-74
2022/09/10 00:07:27;;;;;;;;;;;16.80;99.90;;;;;;8409763;28;19928;-73
2022/09/10 00:11:30;;;;;;;;;;;16.80;99.90;;;;;;8413122;28;19930;-74
2022/09/10 00:15:39;;;;;;;;;;;16.70;99.90;;;;;;8394676;28;19954;-74
2022/09/10 00:19:42;;;;;;;;;;;16.70;99.90;;;;;;8411692;28;20333;-73
2022/09/10 00:23:44;;;;;;;;;;;16.70;99.90;;;;;;8411614;28;20409;-73
2022/09/10 00:27:46;;;;;;;;;;;16.70;99.90;;;;;;8395118;28;19919;-73
2022/09/10 00:31:48;;;;;;;;;;;16.70;99.90;;;;;;8413544;28;19919;-73
2022/09/10 00:35:50;;;;;;;;;;;16.70;99.90;;;;;;8418900;28;19934;-73
2022/09/10 00:39:51;;;;;;;;;;;16.70;99.90;;;;;;8408802;28;19919;-74
2022/09/10 00:43:55;;;;;;;;;;;16.60;99.90;;;;;;8404332;28;20044;-73
2022/09/10 00:47:58;;;;;;;;;;;16.60;99.90;;;;;;8415525;28;20014;-73
2022/09/10 00:52:00;;;;;;;;;;;16.60;99.90;;;;;;8392801;28;20298;-73
2022/09/10 00:56:04;;;;;;;;;;;16.50;99.90;;;;;;8390970;28;20019;-73
2022/09/10 01:00:07;;;;;;;;;;;16.50;99.90;;;;;;8386156;28;20003;-73
2022/09/10 01:04:09;;;;;;;;;;;16.50;99.90;;;;;;8404753;28;19934;-73
2022/09/10 01:08:12;;;;;;;;;;;16.50;99.90;;;;;;8424964;28;20364;-72
2022/09/10 01:12:18;;;;;;;;;;;16.40;99.90;;;;;;8419956;28;19923;-73
2022/09/10 01:16:22;;;;;;;;;;;16.40;99.90;;;;;;8411214;28;20182;-73
2022/09/10 01:20:33;;;;;;;;;;;16.40;99.90;;;;;;8400338;28;19955;-73
2022/09/10 01:24:54;;;;;;;;;;;16.40;99.90;;;;;;8409957;28;19924;-74
2022/09/10 01:28:56;;;;;;;;;;;16.40;99.90;;;;;;8413068;28;19928;-73
2022/09/10 01:33:21;;;;;;;;;;;16.40;99.90;;;;;;8400238;28;20290;-73
2022/09/10 01:37:26;;;;;;;;;;;16.40;99.90;;;;;;8410572;28;20362;-73
2022/09/10 01:41:28;;;;;;;;;;;16.40;99.90;;;;;;8395462;28;20397;-73
2022/09/10 01:45:35;;;;;;;;;;;16.40;99.90;;;;;;8394951;28;19924;-73
2022/09/10 01:49:42;;;;;;;;;;;16.40;99.90;;;;;;8419829;28;19998;-73
2022/09/10 01:54:04;;;;;;;;;;;16.40;99.90;;;;;;8418387;28;19959;-73
2022/09/10 01:58:41;;;;;;;;;;;16.40;99.90;;;;;;8414634;28;19946;-73
2022/09/10 02:02:45;;;;;;;;;;;16.40;99.90;;;;;;8313347;28;19959;-73
2022/09/10 02:06:48;;;;;;;;;;;16.40;99.90;;;;;;8416806;28;20298;-73
2022/09/10 02:10:52;;;;;;;;;;;16.40;99.90;;;;;;8414086;28;19997;-73
2022/09/10 02:14:55;;;;;;;;;;;16.40;99.90;;;;;;8419358;28;19920;-74
2022/09/10 02:18:57;;;;;;;;;;;16.40;99.90;;;;;;8394790;28;20025;-73
2022/09/10 02:22:59;;;;;;;;;;;16.40;99.90;;;;;;8419296;28;19920;-73
2022/09/10 02:27:01;;;;;;;;;;;16.40;99.90;;;;;;8399676;28;19920;-73
2022/09/10 02:31:03;;;;;;;;;;;16.40;99.90;;;;;;8423600;28;19930;-73
2022/09/10 02:35:05;;;;;;;;;;;16.40;99.90;;;;;;8426661;28;19924;-73
2022/09/10 02:39:07;;;;;;;;;;;16.40;99.90;;;;;;8411720;28;19929;-73
2022/09/10 02:43:09;;;;;;;;;;;16.40;99.90;;;;;;8423787;28;20291;-74
2022/09/10 02:47:10;;;;;;;;;;;16.50;99.90;;;;;;8404820;28;20280;-73
2022/09/10 02:51:12;;;;;;;;;;;16.40;99.90;;;;;;8410112;28;20008;-73
2022/09/10 02:55:13;;;;;;;;;;;16.40;99.90;;;;;;8405596;28;19928;-73
2022/09/10 02:59:16;;;;;;;;;;;16.50;99.90;;;;;;8402847;28;20275;-73
2022/09/10 03:03:18;;;;;;;;;;;16.50;99.90;;;;;;8421426;28;19926;-73
2022/09/10 03:07:20;;;;;;;;;;;16.50;99.90;;;;;;8415964;28;20400;-72
2022/09/10 03:11:24;;;;;;;;;;;16.50;99.90;;;;;;8408183;28;19958;-73
2022/09/10 03:15:26;;;;;;;;;;;16.50;99.90;;;;;;8408977;28;19931;-72
2022/09/10 03:19:27;;;;;;;;;;;16.50;99.90;;;;;;8419034;28;19920;-73
2022/09/10 03:23:29;;;;;;;;;;;16.50;99.90;;;;;;8411373;28;19920;-72
2022/09/10 03:27:31;;;;;;;;;;;16.50;99.90;;;;;;8416209;28;19975;-73
2022/09/10 03:31:34;;;;;;;;;;;16.50;99.90;;;;;;8415294;28;20046;-73
2022/09/10 03:35:36;;;;;;;;;;;16.50;99.90;;;;;;8417247;28;19928;-73
2022/09/10 03:39:37;;;;;;;;;;;16.50;99.90;;;;;;8395092;28;19920;-73
2022/09/10 03:43:39;;;;;;;;;;;16.50;99.90;;;;;;8409153;28;19920;-73
2022/09/10 03:47:41;;;;;;;;;;;16.50;99.90;;;;;;8396422;28;20361;-73
2022/09/10 03:51:42;;;;;;;;;;;16.50;99.90;;;;;;8419150;28;19930;-74
2022/09/10 03:55:45;;;;;;;;;;;16.60;99.90;;;;;;8413668;28;19927;-73
2022/09/10 03:59:46;;;;;;;;;;;16.50;99.90;;;;;;8397464;28;20259;-73
2022/09/10 04:03:48;;;;;;;;;;;16.60;99.90;;;;;;8413489;28;19931;-73
2022/09/10 04:07:50;;;;;;;;;;;16.60;99.90;;;;;;8409284;28;19927;-73
2022/09/10 04:11:52;;;;;;;;;;;16.60;99.90;;;;;;8403055;28;19926;-73
2022/09/10 04:15:54;;;;;;;;;;;16.60;99.90;;;;;;8411856;28;19920;-73
2022/09/10 04:19:56;;;;;;;;;;;16.60;99.90;;;;;;8414966;28;19927;-73
2022/09/10 04:24:00;;;;;;;;;;;16.60;99.90;;;;;;8413994;28;19981;-73
2022/09/10 04:28:02;;;;;;;;;;;16.60;99.90;;;;;;8409627;28;19927;-74
2022/09/10 04:32:04;;;;;;;;;;;16.50;99.90;;;;;;8386289;28;19920;-74
2022/09/10 04:36:06;;;;;;;;;;;16.50;99.90;;;;;;8416984;28;19935;-73
2022/09/10 04:40:08;;;;;;;;;;;16.50;99.90;;;;;;8411793;28;19931;-73
2022/09/10 04:44:10;;;;;;;;;;;16.50;99.90;;;;;;8405499;28;20287;-74
2022/09/10 04:48:11;;;;;;;;;;;16.50;99.90;;;;;;8411568;28;19927;-73
2022/09/10 04:52:15;;;;;;;;;;;16.50;99.90;;;;;;8403202;28;19927;-74
2022/09/10 04:56:18;;;;;;;;;;;16.50;99.90;;;;;;8423056;28;19919;-73
2022/09/10 05:00:20;;;;;;;;;;;16.50;99.90;;;;;;8410111;28;19920;-73
2022/09/10 05:04:22;;;;;;;;;;;16.50;99.90;;;;;;8396534;28;19928;-73
2022/09/10 05:08:23;;;;;;;;;;;16.50;99.90;;;;;;8414116;28;20406;-73
2022/09/10 05:12:25;;;;;;;;;;;16.60;99.90;;;;;;8414096;28;19927;-73
2022/09/10 05:16:27;;;;;;;;;;;16.60;99.90;;;;;;8425297;28;19927;-73
2022/09/10 05:20:28;;;;;;;;;;;16.60;99.90;;;;;;8414409;28;19924;-73
2022/09/10 05:24:33;;;;;;;;;;;16.60;99.90;;;;;;8410400;28;20000;-73
2022/09/10 05:28:35;;;;;;;;;;;16.70;99.90;;;;;;8408542;28;19927;-74
2022/09/10 05:32:38;;;;;;;;;;;16.60;99.90;;;;;;8416048;28;19931;-74
2022/09/10 05:36:40;;;;;;;;;;;16.70;99.90;;;;;;8403027;28;19955;-73
2022/09/10 05:40:42;;;;;;;;;;;16.70;99.90;;;;;;8409591;28;20326;-73
2022/09/10 05:44:44;;;;;;;;;;;16.70;99.90;;;;;;8403828;28;19919;-72
2022/09/10 05:48:45;;;;;;;;;;;16.70;99.90;;;;;;8425539;28;20089;-73
2022/09/10 05:52:47;;;;;;;;;;;16.80;99.90;;;;;;8424801;28;20232;-73
2022/09/10 05:56:49;;;;;;;;;;;16.70;99.90;;;;;;8427048;28;19930;-74
2022/09/10 06:00:50;;;;;;;;;;;16.80;99.90;;;;;;8415333;28;19920;-73
2022/09/10 06:04:52;;;;;;;;;;;16.80;99.90;;;;;;8392569;28;20268;-74
2022/09/10 06:08:54;;;;;;;;;;;16.80;99.90;;;;;;8417875;28;19926;-74
2022/09/10 06:12:55;;;;;;;;;;;16.80;99.90;;;;;;8399476;28;20304;-73
2022/09/10 06:16:57;;;;;;;;;;;16.80;99.90;;;;;;8401167;28;20290;-73
2022/09/10 06:21:02;;;;;;;;;;;16.90;99.90;;;;;;8418735;28;19924;-74
2022/09/10 06:25:05;;;;;;;;;;;16.90;99.90;;;;;;8414020;28;19958;-73
2022/09/10 06:29:07;;;;;;;;;;;16.90;99.90;;;;;;8400741;28;20007;-74
2022/09/10 06:33:08;;;;;;;;;;;16.90;99.90;;;;;;8412708;28;20047;-73
2022/09/10 06:37:10;;;;;;;;;;;16.90;99.90;;;;;;8396956;28;19920;-73
2022/09/10 06:41:12;;;;;;;;;;;16.90;99.90;;;;;;8416316;28;20322;-73
2022/09/10 06:45:14;;;;;;;;;;;16.90;99.90;;;;;;8410209;28;19927;-73
2022/09/10 06:49:15;;;;;;;;;;;17.00;99.90;;;;;;8414820;28;19919;-73
2022/09/10 06:53:17;;;;;;;;;;;17.00;99.90;;;;;;8411136;28;19920;-74
2022/09/10 06:57:19;;;;;;;;;;;17.00;99.90;;;;;;8429365;28;19962;-74
2022/09/10 07:01:22;;;;;;;;;;;17.00;99.90;;;;;;8417364;28;19958;-73
2022/09/10 07:05:26;;;;;;;;;;;17.00;99.90;;;;;;8401012;28;19929;-73
2022/09/10 07:09:27;;;;;;;;;;;17.00;99.90;;;;;;8395004;28;20019;-73
2022/09/10 07:13:33;;;;;;;;;;;17.10;99.90;;;;;;8399072;28;19987;-73
2022/09/10 07:17:35;;;;;;;;;;;17.10;99.90;;;;;;8397015;28;19967;-73
2022/09/10 07:21:36;;;;;;;;;;;17.20;99.90;;;;;;8387440;28;19953;-74
2022/09/10 07:25:39;;;;;;;;;;;17.20;99.90;;;;;;8398995;28;19928;-74
2022/09/10 07:29:41;;;;;;;;;;;17.30;99.90;;;;;;8394505;28;20338;-74
2022/09/10 07:33:43;;;;;;;;;;;17.30;99.90;;;;;;8390170;28;20344;-74
2022/09/10 07:37:45;;;;;;;;;;;17.30;99.90;;;;;;8394703;28;19921;-74
2022/09/10 07:41:47;;;;;;;;;;;17.40;99.90;;;;;;8393853;28;20011;-74
2022/09/10 07:45:49;;;;;;;;;;;17.40;99.90;;;;;;8404426;28;19931;-74
2022/09/10 07:49:51;;;;;;;;;;;17.40;99.90;;;;;;8402066;28;19970;-73
2022/09/10 07:53:54;;;;;;;;;;;17.50;99.90;;;;;;8393058;28;19920;-73
2022/09/10 07:57:55;;;;;;;;;;;17.60;99.90;;;;;;8371574;28;19924;-74
2022/09/10 08:02:00;;;;;;;;;;;17.70;99.90;;;;;;8393247;28;19924;-74
2022/09/10 08:06:02;;;;;;;;;;;17.80;99.90;;;;;;8382686;28;20010;-73
2022/09/10 08:10:04;;;;;;;;;;;17.90;99.90;;;;;;8395949;28;20291;-73
2022/09/10 08:14:05;;;;;;;;;;;18.00;99.90;;;;;;8395205;28;19924;-73
2022/09/10 08:18:07;;;;;;;;;;;18.20;99.90;;;;;;8388743;28;20336;-74
2022/09/10 08:22:09;;;;;;;;;;;18.40;99.90;;;;;;8395410;28;19920;-74
2022/09/10 08:26:14;;;;;;;;;;;18.50;99.90;;;;;;8394551;28;20606;-73
2022/09/10 08:30:15;;;;;;;;;;;18.50;99.90;;;;;;8387558;28;20007;-73
2022/09/10 08:34:17;;;;;;;;;;;18.60;99.90;;;;;;8390386;28;19971;-74
2022/09/10 08:38:19;;;;;;;;;;;18.60;99.90;;;;;;8388840;28;19928;-74
2022/09/10 08:42:23;;;;;;;;;;;18.60;99.90;;;;;;8373077;28;20263;-73
2022/09/10 08:46:36;;;;;;;;;;;18.50;99.90;;;;;;8390785;28;20010;-74
2022/09/10 08:50:44;;;;;;;;;;;18.40;99.90;;;;;;8387780;28;20253;-74
2022/09/10 08:54:46;;;;;;;;;;;18.40;99.90;;;;;;8390232;28;19920;-74
2022/09/10 08:58:53;;;;;;;;;;;18.40;99.90;;;;;;8391184;28;19920;-73
2022/09/10 09:03:00;;;;;;;;;;;18.30;99.90;;;;;;8391430;28;20338;-74
2022/09/10 09:07:07;;;;;;;;;;;18.40;99.90;;;;;;8387066;28;19979;-73
2022/09/10 09:11:21;;;;;;;;;;;18.40;99.90;;;;;;8390541;28;20015;-74
2022/09/10 09:15:25;;;;;;;;;;;18.40;99.90;;;;;;8399496;28;19930;-74
2022/09/10 09:19:28;;;;;;;;;;;18.40;99.90;;;;;;8390132;28;20446;-73
2022/09/10 09:23:40;;;;;;;;;;;18.40;99.90;;;;;;8389700;28;19924;-74
2022/09/10 09:28:03;;;;;;;;;;;18.50;99.90;;;;;;8391953;28;19928;-74
2022/09/10 09:32:05;;;;;;;;;;;18.60;99.90;;;;;;8401587;28;20268;-74
2022/09/10 09:36:12;;;;;;;;;;;18.70;99.90;;;;;;8395928;28;19963;-74
2022/09/10 09:40:25;;;;;;;;;;;18.80;99.90;;;;;;8395215;28;20225;-74
2022/09/10 09:44:35;;;;;;;;;;;19.00;99.90;;;;;;8402204;28;19974;-73
2022/09/10 09:48:38;;;;;;;;;;;19.20;99.90;;;;;;8394314;28;19967;-73
2022/09/10 09:52:41;;;;;;;;;;;19.40;99.90;;;;;;8392818;28;20343;-74
2022/09/10 09:56:50;;;;;;;;;;;19.50;99.90;;;;;;8395283;28;19934;-74
2022/09/10 10:01:04;;;;;;;;;;;19.60;99.90;;;;;;8395670;28;20015;-73
2022/09/10 10:05:06;;;;;;;;;;;19.60;99.90;;;;;;8396358;28;19928;-74
2022/09/10 10:09:27;;;;;;;;;;;19.60;99.90;;;;;;8395437;28;19924;-74
2022/09/10 10:13:40;;;;;;;;;;;19.70;99.90;;;;;;8386534;28;20355;-74
2022/09/10 10:17:42;;;;;;;;;;;19.80;99.90;;;;;;8395083;28;19938;-73
2022/09/10 10:21:45;;;;;;;;;;;19.70;99.90;;;;;;8394093;28;20018;-73
2022/09/10 10:25:50;;;;;;;;;;;19.70;99.90;;;;;;8395930;28;20375;-73
2022/09/10 10:29:52;;;;;;;;;;;19.80;99.90;;;;;;8394361;28;20404;-74
2022/09/10 10:33:56;;;;;;;;;;;20.00;99.90;;;;;;8387739;28;19920;-73
2022/09/10 10:38:02;;;;;;;;;;;20.00;99.90;;;;;;8393376;28;19927;-73
2022/09/10 10:42:03;;;;;;;;;;;19.90;99.90;;;;;;8378510;28;19968;-74
2022/09/10 10:46:11;;;;;;;;;;;19.90;99.90;;;;;;8396670;28;19930;-73
2022/09/10 10:50:23;;;;;;;;;;;19.80;99.90;;;;;;8387273;28;19954;-74
2022/09/10 10:54:40;;;;;;;;;;;19.70;99.90;;;;;;8398834;28;19931;-73
2022/09/10 10:59:03;;;;;;;;;;;19.60;99.90;;;;;;8388854;28;20623;-74
2022/09/10 11:03:10;;;;;;;;;;;19.70;99.90;;;;;;8393990;28;19931;-73
2022/09/10 11:07:15;;;;;;;;;;;19.70;99.90;;;;;;8404903;28;20019;-73
2022/09/10 11:11:23;;;;;;;;;;;19.70;99.90;;;;;;8396268;28;20344;-73
2022/09/10 11:15:46;;;;;;;;;;;19.70;99.90;;;;;;8394852;28;19920;-73
2022/09/10 11:20:07;;;;;;;;;;;19.70;99.90;;;;;;8405971;28;19924;-74
2022/09/10 11:24:33;;;;;;;;;;;19.60;99.90;;;;;;8394335;28;19920;-73
2022/09/10 11:28:54;;;;;;;;;;;19.60;99.90;;;;;;8378943;28;20029;-74
2022/09/10 11:33:03;;;;;;;;;;;19.50;99.90;;;;;;8390985;28;19927;-74
2022/09/10 11:37:14;;;;;;;;;;;19.50;99.90;;;;;;8394125;28;19928;-73
2022/09/10 11:41:22;;;;;;;;;;;19.60;99.90;;;;;;8394401;28;19938;-74
2022/09/10 11:45:27;;;;;;;;;;;19.80;99.90;;;;;;8390494;28;20433;-74
2022/09/10 11:49:41;;;;;;;;;;;20.10;99.90;;;;;;8391382;28;19944;-74
2022/09/10 11:53:43;;;;;;;;;;;20.20;99.90;;;;;;8384363;28;20652;-73
2022/09/10 11:57:50;;;;;;;;;;;20.20;99.90;;;;;;8387399;28;20002;-73
2022/09/10 12:02:12;;;;;;;;;;;20.10;99.90;;;;;;8387229;28;20306;-73
2022/09/10 12:06:25;;;;;;;;;;;20.00;99.90;;;;;;8386873;28;19970;-74
2022/09/10 12:10:46;;;;;;;;;;;19.90;99.90;;;;;;8384966;28;19934;-73
2022/09/10 12:14:48;;;;;;;;;;;19.90;99.90;;;;;;8386880;28;20030;-73
2022/09/10 12:18:51;;;;;;;;;;;19.90;99.90;;;;;;8382639;28;19935;-73
2022/09/10 12:22:54;;;;;;;;;;;20.00;99.90;;;;;;8379306;28;20022;-73
2022/09/10 12:26:56;;;;;;;;;;;20.00;99.90;;;;;;8389024;28;20258;-73
2022/09/10 12:30:59;;;;;;;;;;;20.00;99.90;;;;;;8390604;28;19927;-74
2022/09/10 12:35:20;;;;;;;;;;;20.00;99.90;;;;;;8387758;28;19951;-73
2022/09/10 12:39:22;;;;;;;;;;;20.00;99.90;;;;;;8389649;28;19962;-74
2022/09/10 12:43:39;;;;;;;;;;;20.00;99.90;;;;;;8369734;28;19932;-73
2022/09/10 12:47:42;;;;;;;;;;;20.00;99.90;;;;;;8375806;28;20023;-74
2022/09/10 12:52:01;;;;;;;;;;;20.00;99.90;;;;;;8386815;28;20015;-74
2022/09/10 12:56:15;;;;;;;;;;;20.10;99.90;;;;;;8386846;28;19928;-73
2022/09/10 13:00:20;;;;;;;;;;;20.10;99.90;;;;;;8389154;28;19938;-73
2022/09/10 13:04:23;;;;;;;;;;;20.10;99.90;;;;;;8397040;28;19927;-73
2022/09/10 13:08:26;;;;;;;;;;;20.10;99.90;;;;;;8394562;28;20371;-73
2022/09/10 13:12:31;;;;;;;;;;;20.20;99.90;;;;;;8397103;28;19920;-72
2022/09/10 13:16:33;;;;;;;;;;;20.30;99.90;;;;;;8398569;28;20018;-73
2022/09/10 13:20:35;;;;;;;;;;;20.30;99.90;;;;;;8408095;28;19920;-73
2022/09/10 13:24:57;;;;;;;;;;;20.30;99.90;;;;;;8384055;28;20015;-73
2022/09/10 13:29:00;;;;;;;;;;;20.30;99.90;;;;;;8404711;28;20010;-73
2022/09/10 13:33:04;;;;;;;;;;;20.30;99.90;;;;;;8402561;28;20003;-73
2022/09/10 13:37:24;;;;;;;;;;;20.40;99.90;;;;;;8400137;28;19929;-72
2022/09/10 13:41:46;;;;;;;;;;;20.40;99.90;;;;;;8395270;28;19985;-72
2022/09/10 13:45:52;;;;;;;;;;;20.40;99.90;;;;;;8373211;28;19935;-73
2022/09/10 13:50:04;;;;;;;;;;;20.30;99.90;;;;;;8390288;28;19932;-72
2022/09/10 13:54:08;;;;;;;;;;;20.40;99.90;;;;;;8391589;28;20259;-72
2022/09/10 13:58:14;;;;;;;;;;;20.50;99.90;;;;;;8392565;28;19967;-73
2022/09/10 14:02:18;;;;;;;;;;;20.60;99.90;;;;;;8374339;28;20394;-73
2022/09/10 14:06:22;;;;;;;;;;;20.60;99.90;;;;;;8393739;28;19928;-73
2022/09/10 14:10:24;;;;;;;;;;;20.60;99.90;;;;;;8375716;28;20011;-72
2022/09/10 14:14:28;;;;;;;;;;;20.50;99.90;;;;;;8393504;28;19930;-72
2022/09/10 14:18:36;;;;;;;;;;;20.40;99.90;;;;;;8391810;28;19974;-73
2022/09/10 14:22:38;;;;;;;;;;;20.40;99.90;;;;;;8393315;28;19924;-73
2022/09/10 14:26:39;;;;;;;;;;;20.30;99.90;;;;;;8396783;28;20019;-72
2022/09/10 14:30:42;;;;;;;;;;;20.30;99.90;;;;;;8387586;28;19935;-72
2022/09/10 14:34:43;;;;;;;;;;;20.30;99.90;;;;;;8395845;28;20372;-72
2022/09/10 14:38:54;;;;;;;;;;;20.30;99.90;;;;;;8393893;28;19938;-72
2022/09/10 14:43:11;;;;;;;;;;;20.40;99.90;;;;;;8392274;28;19947;-73
2022/09/10 14:47:21;;;;;;;;;;;20.60;99.90;;;;;;8392687;28;20024;-72
2022/09/10 14:51:24;;;;;;;;;;;20.80;99.90;;;;;;8390299;28;20018;-73
2022/09/10 14:55:29;;;;;;;;;;;21.00;99.90;;;;;;8392050;28;19928;-72
2022/09/10 14:59:32;;;;;;;;;;;21.30;99.90;;;;;;8392231;28;20335;-72
2022/09/10 15:03:35;;;;;;;;;;;21.50;99.90;;;;;;8398090;28;20408;-72
2022/09/10 15:07:37;;;;;;;;;;;21.70;99.90;;;;;;8373824;28;19986;-72
2022/09/10 15:11:43;;;;;;;;;;;21.60;99.90;;;;;;8392797;28;19926;-72
2022/09/10 15:15:45;;;;;;;;;;;21.60;99.90;;;;;;8388085;28;20397;-72
2022/09/10 15:19:47;;;;;;;;;;;21.60;99.90;;;;;;8388117;28;20402;-72
2022/09/10 15:23:49;;;;;;;;;;;21.60;99.90;;;;;;8386982;28;20081;-73
2022/09/10 15:27:50;;;;;;;;;;;21.70;99.90;;;;;;8392413;28;20350;-73
2022/09/10 15:31:52;;;;;;;;;;;21.80;99.90;;;;;;8393297;28;20023;-72
2022/09/10 15:35:53;;;;;;;;;;;21.90;99.90;;;;;;8389206;28;19927;-72
2022/09/10 15:39:57;;;;;;;;;;;22.00;99.90;;;;;;8391855;28;19930;-72
2022/09/10 15:44:00;;;;;;;;;;;22.20;99.90;;;;;;8391089;28;19975;-72
2022/09/10 15:48:03;;;;;;;;;;;22.20;99.90;;;;;;8387841;28;19924;-72
2022/09/10 15:52:04;;;;;;;;;;;22.20;99.90;;;;;;8388294;28;20404;-72
2022/09/10 15:56:08;;;;;;;;;;;22.20;99.90;;;;;;8391104;28;19926;-73
2022/09/10 16:00:11;;;;;;;;;;;22.10;99.90;;;;;;8392117;28;20023;-72
2022/09/10 16:04:14;;;;;;;;;;;22.10;99.90;;;;;;8389269;28;19924;-73
2022/09/10 16:08:15;;;;;;;;;;;22.10;99.90;;;;;;8390986;28;19928;-72
2022/09/10 16:12:17;;;;;;;;;;;22.10;99.90;;;;;;8390805;28;20382;-73
2022/09/10 16:16:19;;;;;;;;;;;22.30;99.90;;;;;;8369144;28;19931;-72
2022/09/10 16:20:21;;;;;;;;;;;22.50;99.90;;;;;;8389547;28;19926;-73
2022/09/10 16:24:23;;;;;;;;;;;22.60;99.90;;;;;;8390165;28;19924;-73
2022/09/10 16:28:25;;;;;;;;;;;22.60;99.90;;;;;;8389258;28;20343;-72
2022/09/10 16:32:27;;;;;;;;;;;22.70;99.90;;;;;;8387356;28;19935;-72
2022/09/10 16:36:30;;;;;;;;;;;22.70;99.90;;;;;;8388036;28;19924;-72
2022/09/10 16:40:31;;;;;;;;;;;22.70;99.90;;;;;;8391552;28;19960;-73
2022/09/10 16:44:33;;;;;;;;;;;22.70;99.90;;;;;;8389264;28;19934;-72
2022/09/10 16:48:35;;;;;;;;;;;22.70;99.90;;;;;;8372245;28;19924;-72
2022/09/10 16:52:39;;;;;;;;;;;22.90;99.90;;;;;;8389906;28;19924;-72
2022/09/10 16:56:43;;;;;;;;;;;23.20;99.90;;;;;;8389674;28;20030;-72
2022/09/10 17:00:44;;;;;;;;;;;23.60;99.90;;;;;;8393690;28;19938;-72
2022/09/10 17:04:46;;;;;;;;;;;23.90;99.90;;;;;;8388649;28;19923;-73
2022/09/10 17:08:48;;;;;;;;;;;24.10;99.90;;;;;;8387399;28;20743;-73
2022/09/10 17:12:50;;;;;;;;;;;24.20;99.90;;;;;;8388229;28;19920;-73
2022/09/10 17:16:52;;;;;;;;;;;24.20;99.90;;;;;;8388851;28;19940;-73
2022/09/10 17:20:53;;;;;;;;;;;24.10;99.90;;;;;;8386164;28;19921;-73
2022/09/10 17:24:55;;;;;;;;;;;24.00;99.90;;;;;;8385522;28;19956;-73
2022/09/10 17:28:58;;;;;;;;;;;23.70;99.90;;;;;;8386829;28;19924;-73
2022/09/10 17:33:00;;;;;;;;;;;23.50;99.90;;;;;;8388676;28;19920;-72
2022/09/10 17:37:01;;;;;;;;;;;23.20;99.90;;;;;;8389530;28;19920;-73
2022/09/10 17:41:03;;;;;;;;;;;22.90;99.90;;;;;;8387244;28;19930;-72
2022/09/10 17:45:05;;;;;;;;;;;22.50;99.90;;;;;;8367806;28;25090;-72
2022/09/10 17:49:08;;;;;;;;;;;22.30;99.90;;;;;;8389873;28;20039;-72
2022/09/10 17:53:10;;;;;;;;;;;22.00;99.90;;;;;;8395833;28;20390;-73
2022/09/10 17:57:12;;;;;;;;;;;21.80;99.90;;;;;;8386023;28;19936;-72
2022/09/10 18:01:19;;;;;;;;;;;21.60;99.90;;;;;;8383640;28;20023;-73
2022/09/10 18:05:24;;;;;;;;;;;21.40;99.90;;;;;;8398399;28;19983;-73
2022/09/10 18:09:26;;;;;;;;;;;21.20;99.90;;;;;;8397289;28;19928;-72
2022/09/10 18:13:28;;;;;;;;;;;21.10;99.90;;;;;;8393675;28;20371;-72
2022/09/10 18:17:30;;;;;;;;;;;21.00;99.90;;;;;;8387591;28;20376;-72
2022/09/10 18:21:33;;;;;;;;;;;20.90;99.90;;;;;;8390071;28;19924;-72
2022/09/10 18:25:34;;;;;;;;;;;20.80;99.90;;;;;;8384394;28;20216;-72
2022/09/10 18:29:40;;;;;;;;;;;20.70;99.90;;;;;;8384558;28;20367;-72
2022/09/10 18:33:41;;;;;;;;;;;20.50;99.90;;;;;;8394331;28;19963;-73
2022/09/10 18:37:45;;;;;;;;;;;20.40;99.90;;;;;;8373908;28;20282;-72
2022/09/10 18:41:47;;;;;;;;;;;20.30;99.90;;;;;;8391122;28;20443;-72
2022/09/10 18:45:49;;;;;;;;;;;20.20;99.90;;;;;;8372772;28;19920;-73
2022/09/10 18:49:51;;;;;;;;;;;20.10;99.90;;;;;;8377182;28;20393;-72
2022/09/10 18:53:54;;;;;;;;;;;20.00;99.90;;;;;;8392703;28;19924;-72
2022/09/10 18:57:56;;;;;;;;;;;20.00;99.90;;;;;;8396491;28;20352;-72
2022/09/10 19:01:57;;;;;;;;;;;19.90;99.90;;;;;;8390439;28;19924;-72
2022/09/10 19:06:01;;;;;;;;;;;19.80;99.90;;;;;;8392949;28;19928;-72
2022/09/10 19:10:05;;;;;;;;;;;19.70;99.90;;;;;;8390402;28;19931;-72
2022/09/10 19:14:12;;;;;;;;;;;19.60;99.90;;;;;;8393865;28;20351;-72
2022/09/10 19:18:14;;;;;;;;;;;19.50;99.90;;;;;;8389876;28;20023;-72
2022/09/10 19:22:16;;;;;;;;;;;19.40;99.90;;;;;;8391731;28;19924;-73
2022/09/10 19:26:19;;;;;;;;;;;19.40;99.90;;;;;;8390322;28;23580;-73
2022/09/10 19:30:22;;;;;;;;;;;19.30;99.90;;;;;;8394468;28;20377;-72
2022/09/10 19:34:25;;;;;;;;;;;19.30;99.90;;;;;;8390121;28;20016;-73
2022/09/10 19:38:27;;;;;;;;;;;19.20;99.90;;;;;;8391150;28;20023;-72
2022/09/10 19:42:38;;;;;;;;;;;19.20;99.90;;;;;;8390027;28;19920;-72
2022/09/10 19:46:41;;;;;;;;;;;19.10;99.90;;;;;;8392440;28;20122;-72
2022/09/10 19:50:42;;;;;;;;;;;19.10;99.90;;;;;;8391508;28;19932;-72
2022/09/10 19:54:44;;;;;;;;;;;19.00;99.90;;;;;;8394325;28;19930;-72
2022/09/10 19:58:48;;;;;;;;;;;19.00;99.90;;;;;;8388717;28;19950;-72
2022/09/10 20:02:50;;;;;;;;;;;18.90;99.90;;;;;;8384172;28;19920;-72
2022/09/10 20:06:52;;;;;;;;;;;18.80;99.90;;;;;;8383228;28;20015;-72
2022/09/10 20:10:54;;;;;;;;;;;18.80;99.90;;;;;;8388073;28;19994;-72
2022/09/10 20:14:55;;;;;;;;;;;18.70;99.90;;;;;;8386787;28;20290;-72
2022/09/10 20:18:57;;;;;;;;;;;18.70;99.90;;;;;;8387037;28;20383;-72
2022/09/10 20:23:00;;;;;;;;;;;18.60;99.90;;;;;;8387081;28;19934;-72
2022/09/10 20:27:01;;;;;;;;;;;18.60;99.90;;;;;;8384227;28;19963;-72
2022/09/10 20:31:07;;;;;;;;;;;18.60;99.90;;;;;;8388195;28;19920;-72
2022/09/10 20:35:09;;;;;;;;;;;18.50;99.90;;;;;;8386875;28;19956;-72
2022/09/10 20:39:12;;;;;;;;;;;18.50;99.90;;;;;;8389211;28;19928;-72
2022/09/10 20:43:14;;;;;;;;;;;18.40;99.90;;;;;;8386958;28;21593;-72
2022/09/10 20:47:15;;;;;;;;;;;18.40;99.90;;;;;;8371784;28;20529;-72
2022/09/10 20:51:17;;;;;;;;;;;18.40;99.90;;;;;;8389325;28;20019;-72
2022/09/10 20:55:19;;;;;;;;;;;18.40;99.90;;;;;;8389790;28;20006;-72
2022/09/10 20:59:21;;;;;;;;;;;18.40;99.90;;;;;;8387322;28;19928;-72
2022/09/10 21:03:29;;;;;;;;;;;18.30;99.90;;;;;;8402962;28;20383;-72
2022/09/10 21:07:30;;;;;;;;;;;18.30;99.90;;;;;;8406909;28;20010;-72
2022/09/10 21:11:33;;;;;;;;;;;18.30;99.90;;;;;;8416859;28;20391;-72
2022/09/10 21:15:34;;;;;;;;;;;18.20;99.90;;;;;;8384643;28;19930;-73
2022/09/10 21:19:36;;;;;;;;;;;18.20;99.90;;;;;;8407560;28;19921;-72
2022/09/10 21:23:42;;;;;;;;;;;18.10;99.90;;;;;;8410277;28;20023;-72
2022/09/10 21:27:43;;;;;;;;;;;18.10;99.90;;;;;;8410457;28;20007;-72
2022/09/10 21:31:45;;;;;;;;;;;18.00;99.90;;;;;;8410962;28;19920;-72
2022/09/10 21:35:47;;;;;;;;;;;18.00;99.90;;;;;;8413720;28;20000;-72
2022/09/10 21:39:49;;;;;;;;;;;18.00;99.90;;;;;;8410103;28;19924;-72
2022/09/10 21:43:51;;;;;;;;;;;17.90;99.90;;;;;;8421347;28;19926;-72
2022/09/10 21:47:52;;;;;;;;;;;17.90;99.90;;;;;;8396274;28;19920;-73
2022/09/10 21:51:54;;;;;;;;;;;17.80;99.90;;;;;;8417136;28;20019;-72
2022/09/10 21:55:56;;;;;;;;;;;17.80;99.90;;;;;;8417416;28;20363;-72
2022/09/10 21:59:58;;;;;;;;;;;17.70;99.90;;;;;;8420008;28;19930;-72
2022/09/10 22:04:00;;;;;;;;;;;17.60;99.90;;;;;;8393482;28;19989;-72
2022/09/10 22:08:02;;;;;;;;;;;17.60;99.90;;;;;;8403428;28;19919;-72
2022/09/10 22:12:04;;;;;;;;;;;17.50;99.90;;;;;;8409979;28;19927;-73
2022/09/10 22:16:05;;;;;;;;;;;17.50;99.90;;;;;;8410002;28;19930;-72
2022/09/10 22:20:07;;;;;;;;;;;17.40;99.90;;;;;;8408351;28;19955;-72
2022/09/10 22:24:10;;;;;;;;;;;17.40;99.90;;;;;;8396742;28;19927;-72
2022/09/10 22:28:12;;;;;;;;;;;17.40;99.90;;;;;;8396958;28;19924;-72
2022/09/10 22:32:14;;;;;;;;;;;17.30;99.90;;;;;;8395585;28;20448;-72
2022/09/10 22:36:20;;;;;;;;;;;17.30;99.90;;;;;;8391166;28;19924;-72
2022/09/10 22:40:22;;;;;;;;;;;17.20;99.90;;;;;;8408848;28;20291;-72
2022/09/10 22:44:24;;;;;;;;;;;17.20;99.90;;;;;;8411442;28;20371;-72
2022/09/10 22:48:26;;;;;;;;;;;17.20;99.90;;;;;;8410380;28;19920;-72
2022/09/10 22:52:31;;;;;;;;;;;17.10;99.90;;;;;;8411039;28;19920;-72
2022/09/10 22:56:36;;;;;;;;;;;17.10;99.90;;;;;;8408000;28;19982;-72
2022/09/10 23:00:37;;;;;;;;;;;17.00;99.90;;;;;;8413835;28;19938;-72
2022/09/10 23:04:39;;;;;;;;;;;17.00;99.90;;;;;;8407517;28;19997;-72
2022/09/10 23:08:43;;;;;;;;;;;17.00;99.90;;;;;;8414898;28;19926;-72
2022/09/10 23:12:44;;;;;;;;;;;16.90;99.90;;;;;;8391339;28;20123;-72
2022/09/10 23:16:47;;;;;;;;;;;16.90;99.90;;;;;;8412473;28;20055;-72
2022/09/10 23:20:49;;;;;;;;;;;16.90;99.90;;;;;;8406988;28;19960;-72
2022/09/10 23:24:51;;;;;;;;;;;16.90;99.90;;;;;;8411390;28;19942;-72
2022/09/10 23:28:54;;;;;;;;;;;16.80;99.90;;;;;;8411086;28;19931;-72
2022/09/10 23:32:55;;;;;;;;;;;16.80;99.90;;;;;;8390948;28;19928;-72
2022/09/10 23:36:57;;;;;;;;;;;16.80;99.90;;;;;;8412159;28;19946;-72
2022/09/10 23:40:59;;;;;;;;;;;16.70;99.90;;;;;;8403888;28;19934;-72